»·PEaware :: AAL962 SBGR-KDFW

AAL962 :: SBGR-KDFW

FLIGHT INFORMATION

Flight Status: Arrived
Operator:
American Airlines
More flights by this operator :: More flights under this callsign
Pilot: Drew L. (13237)
Aircraft: Unknown
(B77W)
More flights by this aircraft type
Origin: SBGR Guarulhos Intl.
Brazil
Destination: KDFW Dallas-Ft Worth Intl
United States
More flights between these airports :: More routes between these airports
Route: UKBE1C UKBEV UZ26 PORMI UM409 ISOMU/N0504F340 UM409 SIMUR LOGON UL795 SUBMA/N0498F360 UL795 SENSO UL674 KEHLI/N0488F380 A766 SBI CRIED BEREE1
File this flight plan on PilotEdge
Remarks: PBN / A1B1C1D1L1O1S2 DOF / 180324 REG / N713SB EET / SBBS0000 SBAZ0144 SVZM0350 TNCF0522 MKJK0553 MUFH0700 MMID0739 KZHU0812 KZFW0927 OPR / AAL PER / D RMK / TCAS SIMBRIEF
Altitude:
(Current/Filed)
32,000ft
Speed:
(Current/Filed)
507kts
Departed: 23-Mar-18 11:44 PM
Arrived: 24-Mar-18 10:03 AM
Distance/Time
Traveled:
4449nm/10:18
Distance/Time
To Go:
Arrived

Flight Plot

Page will automatically refresh every two minutes.

Flight plan parsing failed; only flown route is shown


Map Options




Map Legend


Flown Route
Filed Route
Departure Airport
Arrival Airport
Navaid (VOR, NDB)
Fix

Horizontal Profiles

Position Reports

Time Latitude Longitude Heading Altitude Ground
Speed
23-Mar-18 23:20 -23.434241 -46.482767 73 2472ft 0kts
23-Mar-18 23:21 -23.434241 -46.482767 73 2472ft 0kts
23-Mar-18 23:22 -23.434241 -46.482767 73 2472ft 0kts
23-Mar-18 23:23 -23.434241 -46.482767 73 2472ft 0kts
23-Mar-18 23:24 -23.434241 -46.482767 73 2472ft 0kts
23-Mar-18 23:25 -23.434241 -46.482767 73 2472ft 0kts
23-Mar-18 23:26 -23.434241 -46.482767 73 2472ft 0kts
23-Mar-18 23:27 -23.434241 -46.482767 73 2472ft 0kts
23-Mar-18 23:28 -23.434241 -46.482767 73 2472ft 0kts
23-Mar-18 23:29 -23.434241 -46.482767 73 2472ft 0kts
23-Mar-18 23:30 -23.434241 -46.482767 73 2472ft 0kts
23-Mar-18 23:31 -23.434241 -46.482767 73 2472ft 0kts
23-Mar-18 23:32 -23.434241 -46.482767 73 2472ft 0kts
23-Mar-18 23:33 -23.434241 -46.482767 73 2472ft 0kts
23-Mar-18 23:34 -23.434241 -46.482767 73 2472ft 0kts
23-Mar-18 23:35 -23.434241 -46.482767 73 2472ft 0kts
23-Mar-18 23:36 -23.434241 -46.482766 73 2472ft 0kts
23-Mar-18 23:37 -23.434241 -46.482766 73 2472ft 0kts
23-Mar-18 23:38 -23.434241 -46.482766 73 2472ft 0kts
23-Mar-18 23:39 -23.434241 -46.482765 73 2472ft 0kts
23-Mar-18 23:40 -23.434240 -46.482765 73 2472ft 0kts
23-Mar-18 23:41 -23.434240 -46.482765 73 2472ft 0kts
23-Mar-18 23:42 -23.434240 -46.482764 73 2472ft 0kts
23-Mar-18 23:43 -23.431257 -46.471901 73 2472ft 114kts
23-Mar-18 23:44 -23.416969 -46.417490 72 3970ft 210kts
23-Mar-18 23:45 -23.376442 -46.360662 35 5349ft 274kts
23-Mar-18 23:46 -23.310705 -46.325373 356 8238ft 280kts
23-Mar-18 23:47 -23.240013 -46.365873 329 8984ft 291kts
23-Mar-18 23:48 -23.171086 -46.415291 329 10407ft 309kts
23-Mar-18 23:49 -23.090949 -46.471705 328 11430ft 376kts
23-Mar-18 23:50 -22.999411 -46.536082 327 13683ft 402kts
23-Mar-18 23:51 -22.898144 -46.592372 341 16046ft 416kts
23-Mar-18 23:52 -22.796742 -46.653146 310 18104ft 430kts
23-Mar-18 23:53 -22.731491 -46.762999 300 19981ft 440kts
23-Mar-18 23:54 -22.666670 -46.875899 300 19988ft 440kts
23-Mar-18 23:55 -22.602075 -46.988446 300 20068ft 442kts
23-Mar-18 23:56 -22.515959 -47.081213 339 21793ft 454kts
23-Mar-18 23:57 -22.390029 -47.103324 352 23412ft 465kts
23-Mar-18 23:58 -22.260711 -47.123123 350 24856ft 475kts
23-Mar-18 23:59 -22.128311 -47.144193 350 26150ft 485kts
24-Mar-18 00:00 -21.993763 -47.165486 350 27390ft 493kts
24-Mar-18 00:01 -21.856116 -47.186685 350 28509ft 503kts
24-Mar-18 00:02 -21.716673 -47.208187 349 29523ft 510kts
24-Mar-18 00:03 -21.575886 -47.231081 349 30706ft 511kts
24-Mar-18 00:04 -21.435380 -47.253822 349 32015ft 508kts
24-Mar-18 00:05 -21.295590 -47.276157 349 32065ft 509kts
24-Mar-18 00:06 -21.155508 -47.297031 349 32061ft 509kts
24-Mar-18 00:07 -21.015054 -47.318050 350 32055ft 508kts
24-Mar-18 00:08 -20.875079 -47.339045 350 32058ft 508kts
24-Mar-18 00:09 -20.735069 -47.359949 350 32057ft 509kts
24-Mar-18 00:10 -20.594496 -47.380882 350 32057ft 509kts
24-Mar-18 00:11 -20.454404 -47.401916 350 32057ft 509kts
24-Mar-18 00:12 -20.313939 -47.422988 350 32057ft 509kts
24-Mar-18 00:13 -20.173912 -47.444025 350 32057ft 509kts
24-Mar-18 00:14 -20.033898 -47.464956 350 32056ft 509kts
24-Mar-18 00:15 -19.893318 -47.486121 350 32054ft 509kts
24-Mar-18 00:16 -19.753103 -47.507252 350 32055ft 509kts
24-Mar-18 00:17 -19.612733 -47.527778 350 32068ft 510kts
24-Mar-18 00:18 -19.471967 -47.548331 350 32072ft 510kts
24-Mar-18 00:19 -19.331664 -47.568837 350 32081ft 509kts
24-Mar-18 00:20 -19.190903 -47.589341 350 32109ft 509kts
24-Mar-18 00:21 -19.050595 -47.609722 350 32117ft 509kts
24-Mar-18 00:22 -18.909854 -47.627381 352 32123ft 510kts
24-Mar-18 00:23 -18.769060 -47.647292 350 32135ft 510kts
24-Mar-18 00:24 -18.628686 -47.668094 350 32137ft 510kts
24-Mar-18 00:25 -18.488180 -47.688821 350 32133ft 510kts
24-Mar-18 00:26 -18.347389 -47.709489 351 32131ft 510kts
24-Mar-18 00:27 -18.206905 -47.729692 351 32814ft 507kts
24-Mar-18 00:28 -18.067949 -47.749444 350 33991ft 504kts
24-Mar-18 00:29 -17.928763 -47.769237 350 34118ft 503kts
24-Mar-18 00:30 -17.790107 -47.788945 350 34110ft 503kts
24-Mar-18 00:31 -17.650888 -47.808681 350 34104ft 504kts
24-Mar-18 00:32 -17.512087 -47.828324 350 34099ft 504kts
24-Mar-18 00:33 -17.373039 -47.847973 350 34118ft 505kts
24-Mar-18 00:34 -17.233371 -47.867679 350 34116ft 505kts
24-Mar-18 00:35 -17.094047 -47.887311 350 34115ft 506kts
24-Mar-18 00:36 -16.954505 -47.906953 350 34114ft 507kts
24-Mar-18 00:37 -16.814183 -47.926650 351 34113ft 508kts
24-Mar-18 00:38 -16.673494 -47.940302 355 34113ft 509kts
24-Mar-18 00:39 -16.532297 -47.950329 354 34101ft 510kts
24-Mar-18 00:40 -16.390363 -47.961140 354 34103ft 510kts
24-Mar-18 00:41 -16.248904 -47.972018 353 34107ft 510kts
24-Mar-18 00:42 -16.107803 -47.990988 351 34110ft 510kts
24-Mar-18 00:43 -15.967104 -48.009476 351 34111ft 510kts
24-Mar-18 00:44 -15.826238 -48.026340 355 34113ft 511kts
24-Mar-18 00:45 -15.707581 -48.032182 356 34111ft 511kts
24-Mar-18 00:46 -15.542349 -48.042008 355 34110ft 510kts
24-Mar-18 00:47 -15.400877 -48.050633 355 34109ft 510kts
24-Mar-18 00:48 -15.282679 -48.057813 355 34108ft 509kts
24-Mar-18 00:49 -15.153135 -48.104766 316 34107ft 501kts
24-Mar-18 00:50 -15.057229 -48.208759 313 34105ft 500kts
24-Mar-18 00:51 -14.939418 -48.324694 314 34103ft 500kts
24-Mar-18 00:52 -14.855642 -48.407304 315 34105ft 500kts
24-Mar-18 00:53 -14.754979 -48.506126 315 34104ft 499kts
24-Mar-18 00:54 -14.653949 -48.605148 315 34102ft 499kts
24-Mar-18 00:55 -14.553272 -48.703656 315 34100ft 499kts
24-Mar-18 00:56 -14.452578 -48.802050 315 34098ft 499kts
24-Mar-18 00:57 -14.351773 -48.900782 315 34096ft 498kts
24-Mar-18 00:58 -14.251188 -48.998983 315 34073ft 498kts
24-Mar-18 00:59 -14.150298 -49.097324 315 34068ft 498kts
24-Mar-18 01:00 -14.049745 -49.195209 315 34066ft 498kts
24-Mar-18 01:01 -13.949255 -49.292908 315 34019ft 497kts
24-Mar-18 01:02 -13.848551 -49.390692 315 34013ft 496kts
24-Mar-18 01:03 -13.748155 -49.488056 315 34008ft 496kts
24-Mar-18 01:04 -13.647735 -49.585320 315 33996ft 496kts
24-Mar-18 01:05 -13.546932 -49.682838 315 33990ft 496kts
24-Mar-18 01:06 -13.446442 -49.779942 315 33985ft 496kts
24-Mar-18 01:07 -13.345862 -49.876994 315 33974ft 497kts
24-Mar-18 01:08 -13.244983 -49.974370 315 33977ft 497kts
24-Mar-18 01:09 -13.144300 -50.071259 315 33973ft 496kts
24-Mar-18 01:10 -13.043350 -50.168377 315 33967ft 497kts
24-Mar-18 01:11 -12.943624 -50.266262 315 33966ft 497kts
24-Mar-18 01:12 -12.843837 -50.364009 315 33960ft 497kts
24-Mar-18 01:13 -12.743750 -50.462187 315 33960ft 497kts
24-Mar-18 01:14 -12.643982 -50.559895 315 33959ft 497kts
24-Mar-18 01:15 -12.544130 -50.657498 315 33957ft 497kts
24-Mar-18 01:16 -12.443907 -50.755340 315 33955ft 496kts
24-Mar-18 01:17 -12.344054 -50.852697 315 33953ft 496kts
24-Mar-18 01:18 -12.244209 -50.949964 315 33951ft 496kts
24-Mar-18 01:19 -12.144131 -51.047342 315 33950ft 495kts
24-Mar-18 01:20 -12.044438 -51.144236 315 33954ft 495kts
24-Mar-18 01:21 -11.944862 -51.240915 316 33952ft 494kts
24-Mar-18 01:22 -11.844893 -51.337859 316 33951ft 494kts
24-Mar-18 01:23 -11.745412 -51.434245 316 33949ft 493kts
24-Mar-18 01:24 -11.645651 -51.530796 316 33948ft 493kts
24-Mar-18 01:25 -11.546172 -51.626973 316 33946ft 493kts
24-Mar-18 01:26 -11.446690 -51.723054 316 33944ft 493kts
24-Mar-18 01:27 -11.346855 -51.819377 316 33942ft 493kts
24-Mar-18 01:28 -11.247237 -51.915394 316 33941ft 494kts
24-Mar-18 01:29 -11.147447 -52.011480 316 33939ft 494kts
24-Mar-18 01:30 -11.047305 -52.107810 316 33937ft 494kts
24-Mar-18 01:31 -10.947384 -52.203832 316 33936ft 495kts
24-Mar-18 01:32 -10.847405 -52.299817 316 33933ft 495kts
24-Mar-18 01:33 -10.746965 -52.396150 316 33906ft 495kts
24-Mar-18 01:34 -10.646791 -52.492136 316 33901ft 495kts
24-Mar-18 01:35 -10.546175 -52.588448 316 33900ft 497kts
24-Mar-18 01:36 -10.445105 -52.685106 316 33898ft 499kts
24-Mar-18 01:37 -10.344203 -52.781525 316 33897ft 499kts
24-Mar-18 01:38 -10.242921 -52.878210 316 33910ft 498kts
24-Mar-18 01:39 -10.142044 -52.974411 316 33908ft 498kts
24-Mar-18 01:40 -10.041208 -53.070501 316 33906ft 497kts
24-Mar-18 01:41 -9.940113 -53.166744 316 33905ft 497kts
24-Mar-18 01:42 -9.839407 -53.262531 316 33903ft 497kts
24-Mar-18 01:43 -9.738648 -53.358285 316 33902ft 497kts
24-Mar-18 01:44 -9.637616 -53.454214 316 33900ft 496kts
24-Mar-18 01:45 -9.536879 -53.549782 316 33899ft 496kts
24-Mar-18 01:46 -9.436120 -53.645269 316 33897ft 496kts
24-Mar-18 01:47 -9.335019 -53.741037 317 33896ft 497kts
24-Mar-18 01:48 -9.234200 -53.836442 316 33895ft 497kts
24-Mar-18 01:49 -9.132993 -53.932136 316 33894ft 497kts
24-Mar-18 01:50 -9.032010 -54.027540 316 33893ft 497kts
24-Mar-18 01:51 -8.930985 -54.122904 316 33892ft 497kts
24-Mar-18 01:52 -8.829650 -54.218487 316 33892ft 497kts
24-Mar-18 01:53 -8.728577 -54.313748 316 33891ft 497kts
24-Mar-18 01:54 -8.627446 -54.408989 316 33891ft 497kts
24-Mar-18 01:55 -8.525957 -54.504493 316 33890ft 497kts
24-Mar-18 01:56 -8.424610 -54.599793 316 33888ft 499kts
24-Mar-18 01:57 -8.322886 -54.695373 316 33889ft 498kts
24-Mar-18 01:58 -8.221450 -54.790613 317 33887ft 498kts
24-Mar-18 01:59 -8.119941 -54.885852 317 33887ft 499kts
24-Mar-18 02:00 -8.017943 -54.981479 317 33887ft 499kts
24-Mar-18 02:01 -7.916012 -55.076977 317 33887ft 502kts
24-Mar-18 02:02 -7.813701 -55.172761 317 33887ft 502kts
24-Mar-18 02:03 -7.710990 -55.268852 317 33888ft 503kts
24-Mar-18 02:04 -7.608462 -55.364706 317 33888ft 503kts
24-Mar-18 02:05 -7.505580 -55.460821 317 33892ft 503kts
24-Mar-18 02:06 -7.402906 -55.556685 317 33894ft 504kts
24-Mar-18 02:07 -7.300107 -55.652598 317 33895ft 504kts
24-Mar-18 02:08 -7.196974 -55.748760 317 33896ft 504kts
24-Mar-18 02:09 -7.094116 -55.844602 317 33897ft 504kts
24-Mar-18 02:10 -6.991061 -55.940567 317 33898ft 505kts
24-Mar-18 02:11 -6.887609 -56.036843 317 33899ft 506kts
24-Mar-18 02:12 -6.784283 -56.132938 317 33897ft 506kts
24-Mar-18 02:13 -6.680835 -56.229090 317 33898ft 507kts
24-Mar-18 02:14 -6.576884 -56.325650 317 33899ft 507kts
24-Mar-18 02:15 -6.473287 -56.421824 317 33899ft 507kts
24-Mar-18 02:16 -6.369644 -56.517985 317 33900ft 507kts
24-Mar-18 02:17 -6.265651 -56.614416 317 33901ft 507kts
24-Mar-18 02:18 -6.161978 -56.710489 317 33902ft 507kts
24-Mar-18 02:19 -6.058286 -56.806537 317 33903ft 507kts
24-Mar-18 02:20 -5.954438 -56.902665 317 33903ft 506kts
24-Mar-18 02:21 -5.850901 -56.998467 317 33907ft 507kts
24-Mar-18 02:22 -5.747021 -57.094520 317 33908ft 506kts
24-Mar-18 02:23 -5.643481 -57.190227 317 33909ft 506kts
24-Mar-18 02:24 -5.540128 -57.285694 317 33908ft 506kts
24-Mar-18 02:25 -5.436374 -57.381503 317 33909ft 506kts
24-Mar-18 02:26 -5.332966 -57.476937 317 33909ft 506kts
24-Mar-18 02:27 -5.229514 -57.572366 317 33910ft 506kts
24-Mar-18 02:28 -5.125738 -57.668048 317 33910ft 506kts
24-Mar-18 02:29 -5.022251 -57.763419 317 33910ft 506kts
24-Mar-18 02:30 -4.918737 -57.858772 317 33910ft 506kts
24-Mar-18 02:31 -4.814899 -57.954382 317 33910ft 506kts
24-Mar-18 02:32 -4.711256 -58.049770 317 33910ft 506kts
24-Mar-18 02:33 -4.607690 -58.145047 317 33910ft 507kts
24-Mar-18 02:34 -4.503532 -58.240829 317 33909ft 507kts
24-Mar-18 02:35 -4.399766 -58.336213 317 33909ft 507kts
24-Mar-18 02:36 -4.295596 -58.431926 317 33909ft 507kts
24-Mar-18 02:37 -4.191800 -58.527264 317 33908ft 507kts
24-Mar-18 02:38 -4.087943 -58.622621 317 33908ft 507kts
24-Mar-18 02:39 -3.983762 -58.718239 317 33907ft 507kts
24-Mar-18 02:40 -3.879719 -58.813696 317 33907ft 508kts
24-Mar-18 02:41 -3.775631 -58.909161 317 33907ft 508kts
24-Mar-18 02:42 -3.671216 -59.004894 317 33906ft 508kts
24-Mar-18 02:43 -3.567132 -59.100288 317 33906ft 508kts
24-Mar-18 02:44 -3.463049 -59.195656 317 33906ft 508kts
24-Mar-18 02:45 -3.358409 -59.291503 317 33904ft 509kts
24-Mar-18 02:46 -3.254105 -59.386996 317 33903ft 509kts
24-Mar-18 02:47 -3.149414 -59.482846 317 33905ft 509kts
24-Mar-18 02:48 -3.045085 -59.578321 317 33905ft 509kts
24-Mar-18 02:49 -2.940711 -59.673814 317 33905ft 509kts
24-Mar-18 02:50 -2.835971 -59.769618 317 33905ft 509kts
24-Mar-18 02:51 -2.731576 -59.865079 317 33905ft 509kts
24-Mar-18 02:52 -2.627151 -59.960545 317 33905ft 509kts
24-Mar-18 02:53 -2.522404 -60.056282 317 33905ft 509kts
24-Mar-18 02:54 -2.417969 -60.151705 317 33905ft 509kts
24-Mar-18 02:55 -2.313578 -60.247079 317 33904ft 509kts
24-Mar-18 02:56 -2.208775 -60.342806 317 33904ft 509kts
24-Mar-18 02:57 -2.104349 -60.438168 317 33904ft 509kts
24-Mar-18 02:58 -1.999554 -60.533847 317 33904ft 509kts
24-Mar-18 02:59 -1.895095 -60.629189 317 33900ft 509kts
24-Mar-18 03:00 -1.808084 -60.708614 317 33902ft 509kts
24-Mar-18 03:01 -1.685885 -60.820137 317 33902ft 509kts
24-Mar-18 03:02 -1.581461 -60.915404 317 33902ft 509kts
24-Mar-18 03:03 -1.477005 -61.010709 317 33901ft 509kts
24-Mar-18 03:04 -1.389648 -61.090396 317 33901ft 509kts
24-Mar-18 03:05 -1.267798 -61.201532 317 33925ft 509kts
24-Mar-18 03:06 -1.163416 -61.296718 317 33924ft 509kts
24-Mar-18 03:07 -1.076049 -61.376378 317 33924ft 508kts
24-Mar-18 03:08 -0.971829 -61.471414 317 33924ft 507kts
24-Mar-18 03:09 -0.867681 -61.566368 317 33923ft 507kts
24-Mar-18 03:10 -0.745818 -61.677453 316 33921ft 507kts
24-Mar-18 03:11 -0.659077 -61.756523 316 33923ft 507kts
24-Mar-18 03:12 -0.555006 -61.851393 316 33922ft 507kts
24-Mar-18 03:13 -0.450641 -61.946520 316 33923ft 507kts
24-Mar-18 03:14 -0.346648 -62.041299 316 33923ft 506kts
24-Mar-18 03:15 -0.242332 -62.136374 316 33923ft 506kts
24-Mar-18 03:16 -0.138345 -62.231149 316 33924ft 506kts
24-Mar-18 03:17 -0.034398 -62.325885 316 33924ft 506kts
24-Mar-18 03:18 0.069947 -62.420978 316 33925ft 506kts
24-Mar-18 03:19 0.173925 -62.515744 316 33926ft 506kts
24-Mar-18 03:20 0.277789 -62.610406 316 33950ft 505kts
24-Mar-18 03:21 0.381911 -62.705304 316 33951ft 505kts
24-Mar-18 03:22 0.485655 -62.799861 316 33951ft 505kts
24-Mar-18 03:23 0.589406 -62.894429 316 33952ft 505kts
24-Mar-18 03:24 0.693466 -62.989283 316 33952ft 505kts
24-Mar-18 03:25 0.797177 -63.083825 316 33952ft 505kts
24-Mar-18 03:26 0.900830 -63.178321 316 33953ft 505kts
24-Mar-18 03:27 1.004788 -63.273102 316 33955ft 504kts
24-Mar-18 03:28 1.108296 -63.367482 316 33955ft 504kts
24-Mar-18 03:29 1.212095 -63.462136 316 33956ft 504kts
24-Mar-18 03:30 1.315554 -63.556473 316 33957ft 503kts
24-Mar-18 03:31 1.418846 -63.650698 316 33957ft 504kts
24-Mar-18 03:32 1.522515 -63.745273 316 33958ft 503kts
24-Mar-18 03:33 1.625737 -63.839448 316 33958ft 503kts
24-Mar-18 03:34 1.728932 -63.933609 316 33959ft 503kts
24-Mar-18 03:35 1.832448 -64.028082 316 33959ft 503kts
24-Mar-18 03:36 1.935604 -64.122237 316 33957ft 503kts
24-Mar-18 03:37 2.039072 -64.216699 316 33957ft 503kts
24-Mar-18 03:38 2.142218 -64.310881 316 33958ft 503kts
24-Mar-18 03:39 2.245360 -64.405078 316 33958ft 503kts
24-Mar-18 03:40 2.348799 -64.499560 316 33959ft 503kts
24-Mar-18 03:41 2.451940 -64.593798 316 33959ft 503kts
24-Mar-18 03:42 2.555117 -64.688079 316 34240ft 504kts
24-Mar-18 03:43 2.657991 -64.782118 316 35503ft 498kts
24-Mar-18 03:44 2.760111 -64.875480 316 35962ft 497kts
24-Mar-18 03:45 2.862059 -64.968714 316 35972ft 497kts
24-Mar-18 03:46 2.964276 -65.062214 316 35975ft 497kts
24-Mar-18 03:47 3.066142 -65.155417 315 35975ft 496kts
24-Mar-18 03:48 3.168272 -65.248887 315 35976ft 497kts
24-Mar-18 03:49 3.270057 -65.342069 315 35977ft 496kts
24-Mar-18 03:50 3.372174 -65.435580 315 35933ft 496kts
24-Mar-18 03:51 3.473884 -65.528748 315 35931ft 496kts
24-Mar-18 03:52 3.575561 -65.621913 315 35930ft 496kts
24-Mar-18 03:53 3.677536 -65.715383 315 35928ft 496kts
24-Mar-18 03:54 3.779183 -65.808580 315 35926ft 496kts
24-Mar-18 03:55 3.880781 -65.901767 315 35925ft 496kts
24-Mar-18 03:56 3.982675 -65.995256 315 35923ft 496kts
24-Mar-18 03:57 4.084239 -66.088477 315 35921ft 496kts
24-Mar-18 03:58 4.186105 -66.182000 315 35918ft 496kts
24-Mar-18 03:59 4.287618 -66.275218 315 35920ft 495kts
24-Mar-18 04:00 4.388957 -66.368384 315 35918ft 495kts
24-Mar-18 04:01 4.506376 -66.439088 343 35919ft 502kts
24-Mar-18 04:02 4.642505 -66.469490 344 35916ft 501kts
24-Mar-18 04:03 4.777443 -66.504104 343 35914ft 501kts
24-Mar-18 04:04 4.912445 -66.539448 343 35912ft 500kts
24-Mar-18 04:05 5.046797 -66.574680 343 35912ft 498kts
24-Mar-18 04:06 5.181260 -66.609958 343 35910ft 498kts
24-Mar-18 04:07 5.315198 -66.645115 343 35908ft 498kts
24-Mar-18 04:08 5.449125 -66.680281 343 35907ft 498kts
24-Mar-18 04:09 5.583427 -66.715558 343 35902ft 498kts
24-Mar-18 04:10 5.717278 -66.750752 343 35905ft 498kts
24-Mar-18 04:11 5.851070 -66.785932 343 35903ft 497kts
24-Mar-18 04:12 5.985327 -66.821262 343 35903ft 498kts
24-Mar-18 04:13 6.119054 -66.856456 342 35899ft 497kts
24-Mar-18 04:14 6.252690 -66.891661 342 35903ft 497kts
24-Mar-18 04:15 6.386737 -66.926983 342 35904ft 497kts
24-Mar-18 04:16 6.520193 -66.962273 341 35903ft 496kts
24-Mar-18 04:17 6.640363 -67.026011 322 35906ft 489kts
24-Mar-18 04:18 6.753265 -67.102997 323 35907ft 489kts
24-Mar-18 04:19 6.866588 -67.178618 323 35909ft 489kts
24-Mar-18 04:20 6.979734 -67.254159 323 35925ft 488kts
24-Mar-18 04:21 7.093205 -67.329924 323 35927ft 488kts
24-Mar-18 04:22 7.206107 -67.405436 323 35928ft 487kts
24-Mar-18 04:23 7.319306 -67.481191 323 35930ft 487kts
24-Mar-18 04:24 7.431844 -67.556644 323 35935ft 486kts
24-Mar-18 04:25 7.544270 -67.632124 323 35938ft 486kts
24-Mar-18 04:26 7.656891 -67.707716 323 35972ft 485kts
24-Mar-18 04:27 7.768957 -67.782981 323 35979ft 484kts
24-Mar-18 04:28 7.880903 -67.858245 323 35986ft 484kts
24-Mar-18 04:29 7.993121 -67.933733 323 35987ft 484kts
24-Mar-18 04:30 8.104972 -68.009047 323 35994ft 484kts
24-Mar-18 04:31 8.216788 -68.084378 323 35999ft 484kts
24-Mar-18 04:32 8.328994 -68.160025 323 36004ft 484kts
24-Mar-18 04:33 8.440661 -68.235362 323 36008ft 483kts
24-Mar-18 04:34 8.552685 -68.310990 323 36012ft 483kts
24-Mar-18 04:35 8.664222 -68.386351 323 36038ft 483kts
24-Mar-18 04:36 8.775728 -68.461744 323 36039ft 483kts
24-Mar-18 04:37 8.887547 -68.537357 323 36037ft 482kts
24-Mar-18 04:38 8.998815 -68.612745 323 36038ft 482kts
24-Mar-18 04:39 9.110320 -68.687940 323 36010ft 482kts
24-Mar-18 04:40 9.222376 -68.762931 323 36012ft 482kts
24-Mar-18 04:41 9.334032 -68.837794 323 36015ft 482kts
24-Mar-18 04:42 9.445764 -68.912626 323 36017ft 482kts
24-Mar-18 04:43 9.557874 -68.987831 323 36021ft 482kts
24-Mar-18 04:44 9.669551 -69.062830 323 36035ft 482kts
24-Mar-18 04:45 9.781523 -69.138094 323 36048ft 482kts
24-Mar-18 04:46 9.893094 -69.213138 323 36077ft 482kts
24-Mar-18 04:47 10.004667 -69.288264 323 36106ft 482kts
24-Mar-18 04:48 10.116623 -69.363702 323 36111ft 482kts
24-Mar-18 04:49 10.228163 -69.438924 322 36105ft 482kts
24-Mar-18 04:50 10.339743 -69.514237 322 36093ft 482kts
24-Mar-18 04:51 10.451636 -69.589827 322 36075ft 482kts
24-Mar-18 04:52 10.563123 -69.665209 322 36054ft 482kts
24-Mar-18 04:53 10.674725 -69.740736 322 36033ft 482kts
24-Mar-18 04:54 10.786608 -69.816520 322 36015ft 482kts
24-Mar-18 04:55 10.898127 -69.892125 322 36000ft 482kts
24-Mar-18 04:56 11.009564 -69.967747 322 35990ft 482kts
24-Mar-18 04:57 11.121454 -70.043745 322 35981ft 482kts
24-Mar-18 04:58 11.232886 -70.119503 322 35979ft 482kts
24-Mar-18 04:59 11.344660 -70.195563 322 35978ft 482kts
24-Mar-18 05:00 11.455977 -70.271389 322 35977ft 482kts
24-Mar-18 05:01 11.567297 -70.347282 322 35981ft 481kts
24-Mar-18 05:02 11.678861 -70.423427 322 35986ft 481kts
24-Mar-18 05:03 11.790097 -70.499419 322 35992ft 481kts
24-Mar-18 05:04 11.901272 -70.575442 322 35997ft 481kts
24-Mar-18 05:05 12.012821 -70.651798 321 36001ft 481kts
24-Mar-18 05:06 12.123759 -70.727813 321 36004ft 480kts
24-Mar-18 05:07 12.234513 -70.803780 321 36006ft 480kts
24-Mar-18 05:08 12.345483 -70.879974 321 36007ft 479kts
24-Mar-18 05:09 12.456018 -70.955946 321 36007ft 479kts
24-Mar-18 05:10 12.566765 -71.032142 321 36020ft 478kts
24-Mar-18 05:11 12.677183 -71.108196 321 36019ft 478kts
24-Mar-18 05:12 12.787383 -71.184173 321 36018ft 478kts
24-Mar-18 05:13 12.897945 -71.260493 320 36018ft 478kts
24-Mar-18 05:14 13.008010 -71.336549 320 36018ft 478kts
24-Mar-18 05:15 13.118067 -71.412680 320 36017ft 477kts
24-Mar-18 05:16 13.228377 -71.489071 320 36017ft 477kts
24-Mar-18 05:17 13.338316 -71.565291 320 36018ft 477kts
24-Mar-18 05:18 13.448186 -71.641548 320 36018ft 477kts
24-Mar-18 05:19 13.558213 -71.718001 320 36018ft 476kts
24-Mar-18 05:20 13.667772 -71.794136 320 36025ft 476kts
24-Mar-18 05:21 13.759042 -71.857737 320 36027ft 476kts
24-Mar-18 05:22 13.883561 -71.950657 308 36030ft 466kts
24-Mar-18 05:23 13.958564 -72.057572 299 36029ft 461kts
24-Mar-18 05:24 14.031189 -72.166739 300 36030ft 461kts
24-Mar-18 05:25 14.104357 -72.275057 300 36031ft 461kts
24-Mar-18 05:26 14.177527 -72.383423 300 36031ft 461kts
24-Mar-18 05:27 14.238647 -72.473984 300 36032ft 460kts
24-Mar-18 05:28 14.311536 -72.582355 300 36033ft 460kts
24-Mar-18 05:29 14.384276 -72.690689 299 36034ft 459kts
24-Mar-18 05:30 14.457321 -72.799350 300 36035ft 459kts
24-Mar-18 05:31 14.529924 -72.907535 299 36032ft 459kts
24-Mar-18 05:32 14.602644 -73.015659 299 36008ft 459kts
24-Mar-18 05:33 14.675337 -73.124147 299 36009ft 458kts
24-Mar-18 05:34 14.747684 -73.232360 299 36010ft 458kts
24-Mar-18 05:35 14.820977 -73.340431 300 36011ft 457kts
24-Mar-18 05:36 14.893805 -73.448072 299 36011ft 457kts
24-Mar-18 05:37 14.965671 -73.556387 299 36014ft 457kts
24-Mar-18 05:38 15.037636 -73.664924 299 36015ft 456kts
24-Mar-18 05:39 15.109624 -73.773151 299 36016ft 457kts
24-Mar-18 05:40 15.181307 -73.881474 299 36018ft 456kts
24-Mar-18 05:41 15.253156 -73.990242 299 36019ft 456kts
24-Mar-18 05:42 15.324556 -74.098373 299 36020ft 454kts
24-Mar-18 05:43 15.395721 -74.206410 298 36022ft 454kts
24-Mar-18 05:44 15.467228 -74.315004 299 36021ft 455kts
24-Mar-18 05:45 15.538617 -74.423241 298 36022ft 455kts
24-Mar-18 05:46 15.610075 -74.531980 298 36023ft 455kts
24-Mar-18 05:47 15.681172 -74.640358 298 36025ft 454kts
24-Mar-18 05:48 15.752149 -74.748716 298 36026ft 454kts
24-Mar-18 05:49 15.823185 -74.857319 298 36029ft 453kts
24-Mar-18 05:50 15.893954 -74.965676 298 36030ft 454kts
24-Mar-18 05:51 15.964580 -75.073973 298 36026ft 453kts
24-Mar-18 05:52 16.035337 -75.182630 298 36028ft 452kts
24-Mar-18 05:53 16.105567 -75.290641 298 36052ft 451kts
24-Mar-18 05:54 16.175761 -75.398651 298 36053ft 451kts
24-Mar-18 05:55 16.246038 -75.507006 298 36055ft 451kts
24-Mar-18 05:56 16.315924 -75.615114 298 36066ft 451kts
24-Mar-18 05:57 16.385841 -75.723299 298 36066ft 451kts
24-Mar-18 05:58 16.455832 -75.831910 298 36065ft 450kts
24-Mar-18 05:59 16.525538 -75.940295 298 36067ft 450kts
24-Mar-18 06:00 16.595658 -76.048932 298 36066ft 451kts
24-Mar-18 06:01 16.665403 -76.157391 298 36066ft 451kts
24-Mar-18 06:02 16.734925 -76.265742 298 36064ft 449kts
24-Mar-18 06:03 16.804705 -76.374695 297 36065ft 451kts
24-Mar-18 06:04 16.874242 -76.483432 297 36062ft 451kts
24-Mar-18 06:05 16.943636 -76.592110 297 36061ft 450kts
24-Mar-18 06:06 17.013180 -76.701197 297 36060ft 450kts
24-Mar-18 06:07 17.082407 -76.809962 297 36057ft 450kts
24-Mar-18 06:08 17.151619 -76.918881 297 36057ft 450kts
24-Mar-18 06:09 17.220993 -77.028212 297 36056ft 450kts
24-Mar-18 06:10 17.290087 -77.137296 297 36057ft 450kts
24-Mar-18 06:11 17.359398 -77.246889 297 36058ft 451kts
24-Mar-18 06:12 17.428525 -77.356363 297 36061ft 451kts
24-Mar-18 06:13 17.497584 -77.465918 297 36061ft 451kts
24-Mar-18 06:14 17.566607 -77.575592 297 36064ft 450kts
24-Mar-18 06:15 17.635358 -77.685012 297 36066ft 450kts
24-Mar-18 06:16 17.704350 -77.794771 297 36069ft 451kts
24-Mar-18 06:17 17.773294 -77.904950 297 36072ft 451kts
24-Mar-18 06:18 17.841924 -78.014848 297 36085ft 451kts
24-Mar-18 06:19 17.912302 -78.124360 298 36085ft 451kts
24-Mar-18 06:20 17.982926 -78.233232 298 36087ft 451kts
24-Mar-18 06:21 18.053437 -78.342274 298 36088ft 452kts
24-Mar-18 06:22 18.124368 -78.451573 298 36089ft 451kts
24-Mar-18 06:23 18.194782 -78.560601 298 36090ft 451kts
24-Mar-18 06:24 18.265378 -78.670147 298 36090ft 451kts
24-Mar-18 06:25 18.335622 -78.779356 298 36096ft 451kts
24-Mar-18 06:26 18.405825 -78.888672 298 36100ft 451kts
24-Mar-18 06:27 18.476160 -78.998395 298 36106ft 451kts
24-Mar-18 06:28 18.546214 -79.107862 298 36124ft 451kts
24-Mar-18 06:29 18.616181 -79.217382 298 36132ft 451kts
24-Mar-18 06:30 18.686216 -79.327197 298 36139ft 450kts
24-Mar-18 06:31 18.756129 -79.436798 298 36145ft 451kts
24-Mar-18 06:32 18.825831 -79.546541 298 36151ft 451kts
24-Mar-18 06:33 18.895686 -79.656791 298 36156ft 451kts
24-Mar-18 06:34 18.965332 -79.766657 298 36160ft 450kts
24-Mar-18 06:35 19.034819 -79.876574 298 36163ft 449kts
24-Mar-18 06:36 19.104369 -79.986793 298 36164ft 449kts
24-Mar-18 06:37 19.174098 -80.096821 298 36165ft 452kts
24-Mar-18 06:38 19.243991 -80.207683 298 36166ft 451kts
24-Mar-18 06:39 19.313371 -80.317992 298 36168ft 451kts
24-Mar-18 06:40 19.382758 -80.428514 298 36169ft 451kts
24-Mar-18 06:41 19.452339 -80.539547 298 36166ft 452kts
24-Mar-18 06:42 19.521699 -80.650454 298 36171ft 452kts
24-Mar-18 06:43 19.590983 -80.761429 298 36171ft 452kts
24-Mar-18 06:44 19.660451 -80.872896 298 36171ft 452kts
24-Mar-18 06:45 19.729675 -80.984195 298 36176ft 453kts
24-Mar-18 06:46 19.798906 -81.095703 298 36176ft 453kts
24-Mar-18 06:47 19.868498 -81.207728 298 36177ft 453kts
24-Mar-18 06:48 19.937671 -81.319748 298 36179ft 454kts
24-Mar-18 06:49 20.006737 -81.432069 297 36183ft 454kts
24-Mar-18 06:50 20.069598 -81.548652 295 36184ft 453kts
24-Mar-18 06:51 20.132045 -81.665046 296 36188ft 453kts
24-Mar-18 06:52 20.195059 -81.781693 296 36188ft 453kts
24-Mar-18 06:53 20.257846 -81.898060 296 36195ft 454kts
24-Mar-18 06:54 20.320494 -82.014507 296 36198ft 454kts
24-Mar-18 06:55 20.383386 -82.131624 296 36202ft 455kts
24-Mar-18 06:56 20.445880 -82.248605 296 36205ft 455kts
24-Mar-18 06:57 20.508917 -82.365642 297 36208ft 456kts
24-Mar-18 06:58 20.572509 -82.483090 297 36201ft 456kts
24-Mar-18 06:59 20.635897 -82.600499 297 36204ft 458kts
24-Mar-18 07:00 20.699653 -82.718090 297 36205ft 458kts
24-Mar-18 07:01 20.763467 -82.836441 298 36206ft 459kts
24-Mar-18 07:02 20.826983 -82.954566 298 36206ft 459kts
24-Mar-18 07:03 20.890800 -83.073143 298 36201ft 459kts
24-Mar-18 07:04 20.954136 -83.191660 298 36203ft 460kts
24-Mar-18 07:05 21.017497 -83.310307 299 36201ft 460kts
24-Mar-18 07:06 21.082557 -83.428739 299 36204ft 460kts
24-Mar-18 07:07 21.147089 -83.547126 299 36206ft 461kts
24-Mar-18 07:08 21.211447 -83.665634 299 36205ft 460kts
24-Mar-18 07:09 21.276098 -83.784601 300 36218ft 461kts
24-Mar-18 07:10 21.340628 -83.903258 300 36218ft 461kts
24-Mar-18 07:11 21.405236 -84.022673 300 36218ft 462kts
24-Mar-18 07:12 21.469505 -84.141738 300 36218ft 462kts
24-Mar-18 07:13 21.533732 -84.260992 300 36218ft 461kts
24-Mar-18 07:14 21.598055 -84.380705 300 36216ft 462kts
24-Mar-18 07:15 21.662245 -84.500086 300 36215ft 461kts
24-Mar-18 07:16 21.726027 -84.619475 300 36223ft 461kts
24-Mar-18 07:17 21.789965 -84.739427 300 36221ft 461kts
24-Mar-18 07:18 21.853585 -84.858898 300 36216ft 460kts
24-Mar-18 07:19 21.917081 -84.978957 300 36217ft 459kts
24-Mar-18 07:20 21.980197 -85.098554 300 36212ft 460kts
24-Mar-18 07:21 22.044409 -85.217302 301 36214ft 458kts
24-Mar-18 07:22 22.108735 -85.336225 301 36208ft 458kts
24-Mar-18 07:23 22.172786 -85.454719 301 36210ft 457kts
24-Mar-18 07:24 22.236902 -85.573241 301 36209ft 458kts
24-Mar-18 07:25 22.301024 -85.692396 301 36208ft 458kts
24-Mar-18 07:26 22.364990 -85.811233 301 36207ft 458kts
24-Mar-18 07:27 22.428829 -85.930692 301 36206ft 458kts
24-Mar-18 07:28 22.495124 -86.047891 306 36205ft 456kts
24-Mar-18 07:29 22.569480 -86.158359 306 36205ft 455kts
24-Mar-18 07:30 22.642958 -86.270060 306 36204ft 454kts
24-Mar-18 07:31 22.715630 -86.381608 306 36204ft 453kts
24-Mar-18 07:32 22.786037 -86.494075 301 37275ft 447kts
24-Mar-18 07:33 22.844836 -86.611539 300 38206ft 441kts
24-Mar-18 07:34 22.904045 -86.727283 301 38204ft 439kts
24-Mar-18 07:35 22.963779 -86.842872 300 38204ft 439kts
24-Mar-18 07:36 23.023166 -86.959013 300 38192ft 440kts
24-Mar-18 07:37 23.082407 -87.074974 300 38194ft 439kts
24-Mar-18 07:38 23.131820 -87.171988 300 38194ft 438kts
24-Mar-18 07:39 23.200436 -87.307096 300 38194ft 437kts
24-Mar-18 07:40 23.259282 -87.422607 301 38194ft 437kts
24-Mar-18 07:41 23.308389 -87.519033 301 38195ft 436kts
24-Mar-18 07:42 23.376354 -87.653584 300 38194ft 435kts
24-Mar-18 07:43 23.434507 -87.769096 300 38194ft 434kts
24-Mar-18 07:44 23.483471 -87.864532 301 38189ft 433kts
24-Mar-18 07:45 23.552134 -87.997852 301 38189ft 432kts
24-Mar-18 07:46 23.610856 -88.112279 301 38189ft 431kts
24-Mar-18 07:47 23.659846 -88.207060 301 38189ft 431kts
24-Mar-18 07:48 23.718374 -88.321108 301 38178ft 431kts
24-Mar-18 07:49 23.776944 -88.435661 301 38182ft 431kts
24-Mar-18 07:50 23.835016 -88.549519 301 38178ft 427kts
24-Mar-18 07:51 23.892830 -88.663137 301 38179ft 427kts
24-Mar-18 07:52 23.950465 -88.776509 301 38179ft 427kts
24-Mar-18 07:53 24.008030 -88.889979 301 38181ft 427kts
24-Mar-18 07:54 24.065126 -89.003253 301 38180ft 423kts
24-Mar-18 07:55 24.121891 -89.115700 301 38180ft 422kts
24-Mar-18 07:56 24.178643 -89.228088 301 38180ft 422kts
24-Mar-18 07:57 24.235474 -89.340982 301 38181ft 422kts
24-Mar-18 07:58 24.292254 -89.453438 301 38181ft 422kts
24-Mar-18 07:59 24.349259 -89.566352 301 38182ft 422kts
24-Mar-18 08:00 24.405806 -89.679235 301 38175ft 423kts
24-Mar-18 08:01 24.462179 -89.792257 301 38174ft 423kts
24-Mar-18 08:02 24.539869 -89.885984 324 38174ft 419kts
24-Mar-18 08:03 24.636803 -89.956537 324 38176ft 417kts
24-Mar-18 08:04 24.732669 -90.029201 324 38177ft 417kts
24-Mar-18 08:05 24.827758 -90.101806 324 38163ft 416kts
24-Mar-18 08:06 24.922678 -90.174612 324 38167ft 415kts
24-Mar-18 08:07 25.017560 -90.247646 324 38168ft 414kts
24-Mar-18 08:08 25.111846 -90.320377 324 38169ft 413kts
24-Mar-18 08:09 25.206207 -90.393315 323 38170ft 413kts
24-Mar-18 08:10 25.300070 -90.466008 323 38170ft 412kts
24-Mar-18 08:11 25.393788 -90.538728 323 38172ft 412kts
24-Mar-18 08:12 25.487570 -90.611626 323 38173ft 411kts
24-Mar-18 08:13 25.581018 -90.684425 323 38175ft 411kts
24-Mar-18 08:14 25.674704 -90.757549 323 38174ft 411kts
24-Mar-18 08:15 25.768088 -90.830578 323 38174ft 411kts
24-Mar-18 08:16 25.861393 -90.903682 323 38174ft 411kts
24-Mar-18 08:17 25.955059 -90.977223 323 38170ft 411kts
24-Mar-18 08:18 26.048159 -91.050460 323 38169ft 408kts
24-Mar-18 08:19 26.140744 -91.123438 323 38169ft 407kts
24-Mar-18 08:20 26.233097 -91.196378 323 38164ft 407kts
24-Mar-18 08:21 26.325430 -91.269447 323 38163ft 407kts
24-Mar-18 08:22 26.418048 -91.342888 322 38163ft 407kts
24-Mar-18 08:23 26.510298 -91.416183 322 38162ft 408kts
24-Mar-18 08:24 26.602868 -91.489883 322 38161ft 407kts
24-Mar-18 08:25 26.695035 -91.563408 322 38161ft 407kts
24-Mar-18 08:26 26.787443 -91.637278 322 38159ft 406kts
24-Mar-18 08:27 26.879283 -91.710849 322 38160ft 407kts
24-Mar-18 08:28 26.971059 -91.784317 322 38158ft 405kts
24-Mar-18 08:29 27.062773 -91.858185 322 38159ft 404kts
24-Mar-18 08:30 27.154005 -91.931804 322 38159ft 403kts
24-Mar-18 08:31 27.245270 -92.005564 321 38159ft 403kts
24-Mar-18 08:32 27.336118 -92.079244 321 38159ft 403kts
24-Mar-18 08:33 27.426746 -92.152913 321 38159ft 402kts
24-Mar-18 08:34 27.517690 -92.226610 321 38158ft 401kts
24-Mar-18 08:35 27.608110 -92.300179 321 38161ft 401kts
24-Mar-18 08:36 27.698715 -92.374132 321 38159ft 401kts
24-Mar-18 08:37 27.788857 -92.447869 320 38156ft 400kts
24-Mar-18 08:38 27.879001 -92.521586 321 38154ft 401kts
24-Mar-18 08:39 27.969523 -92.595994 320 38151ft 401kts
24-Mar-18 08:40 28.059516 -92.670202 320 38145ft 399kts
24-Mar-18 08:41 28.149360 -92.744277 320 38141ft 399kts
24-Mar-18 08:42 28.238860 -92.818351 320 38135ft 399kts
24-Mar-18 08:43 28.328726 -92.892857 320 38131ft 399kts
24-Mar-18 08:44 28.418207 -92.967279 320 38130ft 399kts
24-Mar-18 08:45 28.507721 -93.041885 320 38129ft 399kts
24-Mar-18 08:46 28.597612 -93.116573 320 38129ft 398kts
24-Mar-18 08:47 28.687012 -93.191013 319 38130ft 399kts
24-Mar-18 08:48 28.776566 -93.266134 319 38125ft 399kts
24-Mar-18 08:49 28.865630 -93.340974 319 38123ft 398kts
24-Mar-18 08:50 28.954686 -93.415931 319 38123ft 398kts
24-Mar-18 08:51 29.043739 -93.491146 319 38122ft 397kts
24-Mar-18 08:52 29.132395 -93.566200 319 38121ft 396kts
24-Mar-18 08:53 29.221339 -93.641243 319 38116ft 395kts
24-Mar-18 08:54 29.309703 -93.716145 318 38116ft 395kts
24-Mar-18 08:55 29.397883 -93.791130 318 38115ft 395kts
24-Mar-18 08:56 29.486441 -93.866382 318 38114ft 395kts
24-Mar-18 08:57 29.574373 -93.941617 318 38110ft 394kts
24-Mar-18 08:58 29.662339 -94.017035 318 38104ft 394kts
24-Mar-18 08:59 29.747849 -94.095204 315 38093ft 392kts
24-Mar-18 09:00 29.831610 -94.176108 315 38091ft 391kts
24-Mar-18 09:01 29.915170 -94.256407 315 38090ft 392kts
24-Mar-18 09:02 29.999132 -94.336696 316 38089ft 393kts
24-Mar-18 09:03 30.082951 -94.416978 315 38086ft 388kts
24-Mar-18 09:04 30.166344 -94.497300 315 38080ft 396kts
24-Mar-18 09:05 30.250174 -94.578254 315 38081ft 386kts
24-Mar-18 09:06 30.334026 -94.659284 315 38081ft 399kts
24-Mar-18 09:07 30.418928 -94.741562 315 38096ft 398kts
24-Mar-18 09:08 30.503132 -94.823422 314 38069ft 388kts
24-Mar-18 09:09 30.586493 -94.904675 314 38068ft 395kts
24-Mar-18 09:10 30.671258 -94.987445 314 38066ft 398kts
24-Mar-18 09:11 30.754956 -95.069419 314 38055ft 393kts
24-Mar-18 09:12 30.839383 -95.152236 314 38065ft 399kts
24-Mar-18 09:13 30.923793 -95.235241 314 38057ft 395kts
24-Mar-18 09:14 31.008412 -95.318602 314 38061ft 403kts
24-Mar-18 09:15 31.093102 -95.402315 313 38056ft 397kts
24-Mar-18 09:16 31.178303 -95.486490 313 38071ft 402kts
24-Mar-18 09:17 31.263956 -95.571578 313 38056ft 403kts
24-Mar-18 09:18 31.348303 -95.655450 315 38053ft 391kts
24-Mar-18 09:19 31.441943 -95.725303 321 38051ft 406kts
24-Mar-18 09:20 31.537429 -95.792465 320 37780ft 377kts
24-Mar-18 09:21 31.633933 -95.861048 321 35438ft 433kts
24-Mar-18 09:22 31.741612 -95.938415 322 32578ft 493kts
24-Mar-18 09:23 31.852799 -96.018482 322 32780ft 455kts
24-Mar-18 09:24 31.964115 -96.098933 322 32720ft 482kts
24-Mar-18 09:25 32.076239 -96.179784 322 34114ft 473kts
24-Mar-18 09:26 32.186797 -96.260028 321 35602ft 458kts
24-Mar-18 09:27 32.292346 -96.344059 313 36859ft 437kts
24-Mar-18 09:28 32.381086 -96.444748 310 36885ft 447kts
24-Mar-18 09:29 32.466745 -96.543639 309 38253ft 430kts
24-Mar-18 09:30 32.553719 -96.643431 309 38244ft 440kts
24-Mar-18 09:31 32.638784 -96.739554 310 39578ft 422kts
24-Mar-18 09:32 32.724646 -96.836779 309 39560ft 431kts
24-Mar-18 09:33 32.821599 -96.922395 337 39458ft 448kts
24-Mar-18 09:34 32.943754 -96.904290 1 38322ft 438kts
24-Mar-18 09:35 33.054988 -96.843599 20 35825ft 439kts
24-Mar-18 09:36 33.142221 -96.740068 47 33328ft 446kts
24-Mar-18 09:37 33.212661 -96.621678 46 30830ft 428kts
24-Mar-18 09:38 33.293614 -96.524516 32 28327ft 400kts
24-Mar-18 09:39 33.372140 -96.432818 39 25835ft 390kts
24-Mar-18 09:40 33.445050 -96.339911 39 23339ft 376kts
24-Mar-18 09:41 33.516160 -96.250692 39 20834ft 363kts
24-Mar-18 09:42 33.596697 -96.218494 324 18366ft 292kts
24-Mar-18 09:43 33.618248 -96.298431 268 15819ft 264kts
24-Mar-18 09:44 33.616309 -96.385508 268 14272ft 256kts
24-Mar-18 09:45 33.614794 -96.455730 268 13196ft 245kts
24-Mar-18 09:46 33.613059 -96.547583 268 11794ft 230kts
24-Mar-18 09:47 33.611329 -96.611642 268 10948ft 231kts
24-Mar-18 09:48 33.593241 -96.698055 226 10015ft 255kts
24-Mar-18 09:49 33.545799 -96.740973 221 9094ft 252kts
24-Mar-18 09:50 33.479610 -96.800741 221 8164ft 256kts
24-Mar-18 09:51 33.432307 -96.843613 221 7493ft 254kts
24-Mar-18 09:52 33.366600 -96.902814 220 6572ft 253kts
24-Mar-18 09:53 33.319883 -96.944700 220 5899ft 251kts
24-Mar-18 09:54 33.264866 -96.993968 219 5105ft 242kts
24-Mar-18 09:55 33.212055 -97.041190 219 4056ft 227kts
24-Mar-18 09:56 33.156529 -97.055690 178 4018ft 202kts
24-Mar-18 09:57 33.100511 -97.053631 183 4007ft 202kts
24-Mar-18 09:58 33.043019 -97.053904 183 3104ft 201kts
24-Mar-18 09:59 32.994276 -97.054155 184 2140ft 151kts
24-Mar-18 10:00 32.953779 -97.054367 184 1373ft 145kts
24-Mar-18 10:01 32.913098 -97.054528 185 625ft 144kts
24-Mar-18 10:02 32.891845 -97.053718 150 621ft 15kts
24-Mar-18 10:03 32.890534 -97.047900 57 621ft 17kts
24-Mar-18 10:04 32.896109 -97.047587 359 621ft 22kts
24-Mar-18 10:05 32.900544 -97.046598 111 621ft 9kts
24-Mar-18 10:06 32.900041 -97.045896 134 621ft 0kts
24-Mar-18 10:07 32.900031 -97.045884 134 621ft 0kts
24-Mar-18 10:08 32.900014 -97.045863 134 621ft 0kts
24-Mar-18 10:09 32.900008 -97.045856 134 621ft 0kts
24-Mar-18 10:10 32.900008 -97.045856 134 621ft 0kts
24-Mar-18 10:11 32.900008 -97.045856 134 621ft 0kts
24-Mar-18 10:12 32.900008 -97.045856 134 621ft 0kts
24-Mar-18 10:13 32.900008 -97.045856 134 621ft 0kts
24-Mar-18 10:14 32.900008 -97.045856 134 621ft 0kts
24-Mar-18 10:15 32.900008 -97.045856 134 621ft 0kts
24-Mar-18 10:16 32.900008 -97.045856 134 621ft 0kts

Navigation Log

Ident Type
Flight plan parsing failed, navigation log unavailable